Time;durP1;ratioP1;P1;durP2;ratioP2;P2;SDS_P1;SDS_P2;PMS_P1;PMS_P2;Temp;Humidity;BMP_temperature;BMP_pressure;BME280_temperature;BME280_humidity;BME280_pressure;Samples;Min_cycle;Max_cycle;Signal;HPM_P1;HPM_P2
2024/01/03 00:00:27;;;;;;;;;;;;;;;7.55;69.42;97872.53;4435617;32;33909;-87
2024/01/03 00:02:55;;;;;;;;;;;;;;;7.32;70.04;97868.13;4436796;32;34258;-88
2024/01/03 00:05:43;;;;;;;;;;;;;;;7.34;70.19;97875.00;4436644;32;33299;-89
2024/01/03 00:08:15;;;;;;;;;;;;;;;7.24;70.75;97872.38;4436385;32;34967;-88
2024/01/03 00:10:49;;;;;;;;;;;;;;;7.41;70.31;97875.03;4436639;32;34258;-88
2024/01/03 00:13:33;;;;;;;;;;;;;;;7.34;70.29;97870.69;4440553;32;34823;-85
2024/01/03 00:16:12;;;;;;;;;;;;;;;7.31;70.52;97858.69;4436525;32;34135;-87
2024/01/03 00:18:54;;;;;;;;;;;;;;;7.39;70.58;97857.84;4436775;32;35006;-88
2024/01/03 00:21:25;;;;;;;;;;;;;;;7.49;70.04;97855.28;4436179;32;34125;-86
2024/01/03 00:23:55;;;;;;;;;;;;;;;7.51;69.88;97845.84;4435286;32;34234;-87
2024/01/03 00:26:23;;;;;;;;;;;;;;;7.65;69.62;97845.91;4435590;32;32923;-86
2024/01/03 00:28:50;;;;;;;;;;;;;;;7.77;69.06;97845.94;4436902;32;33600;-86
2024/01/03 00:31:40;;;;;;;;;;;;;;;7.76;69.15;97853.66;4435612;32;34441;-86
2024/01/03 00:34:15;;;;;;;;;;;;;;;7.73;69.07;97854.53;4433883;32;34524;-86
2024/01/03 00:36:49;;;;;;;;;;;;;;;7.57;69.70;97871.66;4433331;32;33960;-87
2024/01/03 00:39:32;;;;;;;;;;;;;;;7.87;68.96;97869.19;4421289;32;34039;-86
2024/01/03 00:42:00;;;;;;;;;;;;;;;7.70;69.26;97882.91;4420808;32;35306;-86
2024/01/03 00:44:28;;;;;;;;;;;;;;;7.90;68.88;97882.09;4436133;32;34157;-87
2024/01/03 00:46:56;;;;;;;;;;;;;;;8.02;68.35;97884.69;4436689;32;34171;-88
2024/01/03 00:49:24;;;;;;;;;;;;;;;7.90;68.74;97893.28;4435072;32;34172;-86
2024/01/03 00:51:52;;;;;;;;;;;;;;;8.03;68.46;97899.31;4436507;32;34495;-86
2024/01/03 00:54:20;;;;;;;;;;;;;;;7.89;68.98;97896.72;4436096;32;34093;-86
2024/01/03 00:56:47;;;;;;;;;;;;;;;8.07;68.50;97884.69;4436753;32;33416;-86
2024/01/03 00:59:14;;;;;;;;;;;;;;;8.18;68.07;97883.00;4436320;32;34736;-87
2024/01/03 01:01:42;;;;;;;;;;;;;;;8.06;68.42;97868.34;4436423;32;34130;-85
2024/01/03 01:04:09;;;;;;;;;;;;;;;8.05;68.35;97851.16;4434050;32;34566;-86
2024/01/03 01:06:37;;;;;;;;;;;;;;;8.07;68.20;97848.56;4435105;32;33571;-86
2024/01/03 01:09:05;;;;;;;;;;;;;;;8.19;67.74;97839.13;4434933;32;33849;-88
2024/01/03 01:11:32;;;;;;;;;;;;;;;8.14;68.02;97864.06;4433006;32;35028;-88
2024/01/03 01:13:59;;;;;;;;;;;;;;;7.97;68.44;97864.03;4434613;32;33917;-86
2024/01/03 01:16:26;;;;;;;;;;;;;;;8.04;68.37;97859.75;4433811;32;32120;-86
2024/01/03 01:18:54;;;;;;;;;;;;;;;8.26;67.71;97869.25;4434921;32;34598;-86
2024/01/03 01:21:21;;;;;;;;;;;;;;;8.13;68.09;97880.41;4434657;32;35297;-86
2024/01/03 01:23:49;;;;;;;;;;;;;;;8.01;68.26;97875.25;4435188;32;34694;-86
2024/01/03 01:26:17;;;;;;;;;;;;;;;8.02;68.46;97874.37;4433391;32;34077;-86
2024/01/03 01:28:44;;;;;;;;;;;;;;;8.14;68.24;97883.84;4434093;32;33976;-87
2024/01/03 01:31:11;;;;;;;;;;;;;;;8.28;67.51;97875.28;4434945;32;34479;-85
2024/01/03 01:33:39;;;;;;;;;;;;;;;8.08;68.13;97865.78;4434914;32;32985;-86
2024/01/03 01:36:06;;;;;;;;;;;;;;;8.12;68.02;97858.06;4422026;32;33013;-86
2024/01/03 01:38:33;;;;;;;;;;;;;;;8.05;68.29;97846.00;4432618;32;34575;-86
2024/01/03 01:41:01;;;;;;;;;;;;;;;8.13;68.08;97851.16;4419606;32;33643;-86
2024/01/03 01:43:28;;;;;;;;;;;;;;;8.08;68.26;97842.56;4432172;32;34222;-85
2024/01/03 01:45:55;;;;;;;;;;;;;;;8.11;68.19;97842.56;4420738;32;32037;-85
2024/01/03 01:48:23;;;;;;;;;;;;;;;8.13;68.10;97831.38;4429961;32;34163;-85
2024/01/03 01:50:50;;;;;;;;;;;;;;;8.12;68.28;97839.97;4433120;32;34150;-86
2024/01/03 01:53:18;;;;;;;;;;;;;;;8.11;68.27;97832.25;4437253;32;33936;-87
2024/01/03 01:55:46;;;;;;;;;;;;;;;8.10;68.07;97826.19;4435023;32;33010;-86
2024/01/03 01:58:14;;;;;;;;;;;;;;;8.12;68.02;97832.25;4434315;32;33814;-86
2024/01/03 02:00:42;;;;;;;;;;;;;;;8.20;67.80;97835.69;4433449;32;34974;-86
2024/01/03 02:03:10;;;;;;;;;;;;;;;8.18;67.79;97836.53;4436315;32;34037;-88
2024/01/03 02:05:38;;;;;;;;;;;;;;;8.19;67.72;97841.72;4436491;32;33516;-87
2024/01/03 02:08:09;;;;;;;;;;;;;;;8.22;67.58;97840.84;4435968;32;34156;-86
2024/01/03 02:10:37;;;;;;;;;;;;;;;8.15;67.90;97837.41;4434232;32;34427;-89
2024/01/03 02:13:04;;;;;;;;;;;;;;;8.21;67.78;97819.31;4434305;32;34237;-86
2024/01/03 02:15:31;;;;;;;;;;;;;;;8.12;68.06;97819.34;4423001;32;32957;-88
2024/01/03 02:18:04;;;;;;;;;;;;;;;8.28;67.74;97831.38;4422384;32;34256;-86
2024/01/03 02:20:35;;;;;;;;;;;;;;;7.82;68.70;97839.94;4417205;32;35131;-87
2024/01/03 02:23:02;;;;;;;;;;;;;;;7.86;68.87;97839.09;4421176;32;34539;-86
2024/01/03 02:25:29;;;;;;;;;;;;;;;7.85;69.10;97819.31;4422167;32;32306;-86
2024/01/03 02:27:57;;;;;;;;;;;;;;;8.07;68.66;97807.25;4423076;32;34244;-86
2024/01/03 02:30:24;;;;;;;;;;;;;;;8.07;68.71;97802.09;4421760;32;33865;-86
2024/01/03 02:32:52;;;;;;;;;;;;;;;7.99;68.98;97802.09;4421576;32;32271;-86
2024/01/03 02:35:19;;;;;;;;;;;;;;;8.08;68.94;97791.81;4427511;32;33157;-88
2024/01/03 02:37:46;;;;;;;;;;;;;;;8.00;69.27;97783.19;4435915;32;33624;-88
2024/01/03 02:40:14;;;;;;;;;;;;;;;8.16;68.77;97772.00;4437438;32;33942;-86
2024/01/03 02:42:41;;;;;;;;;;;;;;;8.09;69.26;97785.78;4437752;32;33770;-89
2024/01/03 02:45:08;;;;;;;;;;;;;;;7.96;69.55;97784.06;4437043;32;32817;-88
2024/01/03 02:47:36;;;;;;;;;;;;;;;8.00;69.95;97772.88;4423142;32;33465;-88
2024/01/03 02:50:04;;;;;;;;;;;;;;;7.85;70.39;97775.44;4423751;32;34401;-88
2024/01/03 02:52:32;;;;;;;;;;;;;;;7.81;70.56;97774.56;4437424;32;34149;-87
2024/01/03 02:54:59;;;;;;;;;;;;;;;7.74;71.04;97786.59;4437284;32;33405;-88
2024/01/03 02:57:26;;;;;;;;;;;;;;;7.70;71.47;97778.84;4437295;32;34995;-87
2024/01/03 02:59:53;;;;;;;;;;;;;;;7.65;71.77;97788.28;4436857;32;33903;-89
2024/01/03 03:02:21;;;;;;;;;;;;;;;7.25;73.31;97757.25;4437181;32;34272;-88
2024/01/03 03:04:48;;;;;;;;;;;;;;;7.66;72.10;97774.56;4436930;32;33156;-89
2024/01/03 03:07:16;;;;;;;;;;;;;;;7.55;72.31;97769.38;4437589;32;33686;-87
2024/01/03 03:09:43;;;;;;;;;;;;;;;7.57;72.49;97777.94;4437075;32;33883;-88
2024/01/03 03:12:10;;;;;;;;;;;;;;;7.57;72.46;97773.66;4437400;32;34083;-88
2024/01/03 03:14:38;;;;;;;;;;;;;;;7.43;73.03;97759.03;4436980;32;33846;-88
2024/01/03 03:17:05;;;;;;;;;;;;;;;7.57;73.04;97765.06;4437060;32;33427;-88
2024/01/03 03:19:33;;;;;;;;;;;;;;;7.60;72.78;97775.37;4437330;32;34323;-88
2024/01/03 03:22:00;;;;;;;;;;;;;;;7.62;72.62;97785.72;4422021;32;32776;-88
2024/01/03 03:24:28;;;;;;;;;;;;;;;7.25;74.17;97788.19;4424650;32;34034;-87
2024/01/03 03:26:55;;;;;;;;;;;;;;;7.35;73.96;97773.59;4405134;32;32530;-85
2024/01/03 03:29:23;;;;;;;;;;;;;;;7.41;73.87;97764.16;4420706;32;34180;-86
2024/01/03 03:31:50;;;;;;;;;;;;;;;7.18;74.83;97769.25;4423159;32;34385;-86
2024/01/03 03:34:18;;;;;;;;;;;;;;;7.25;74.81;97752.94;4412198;32;33083;-86
2024/01/03 03:36:46;;;;;;;;;;;;;;;7.24;75.13;97760.69;4435494;32;34302;-88
2024/01/03 03:39:13;;;;;;;;;;;;;;;7.23;75.22;97767.53;4437095;32;34389;-87
2024/01/03 03:41:40;;;;;;;;;;;;;;;7.19;75.93;97763.22;4422973;32;33847;-88
2024/01/03 03:44:08;;;;;;;;;;;;;;;7.05;76.73;97764.91;4422621;32;33965;-87
2024/01/03 03:46:35;;;;;;;;;;;;;;;6.99;77.15;97777.75;4422600;32;32442;-88
2024/01/03 03:49:02;;;;;;;;;;;;;;;6.87;78.10;97778.56;4408983;32;34325;-86
2024/01/03 03:51:30;;;;;;;;;;;;;;;7.35;76.54;97776.16;4422363;32;32836;-87
2024/01/03 03:53:57;;;;;;;;;;;;;;;7.51;75.80;97771.06;4421493;32;34307;-86
2024/01/03 03:56:25;;;;;;;;;;;;;;;7.41;76.55;97779.62;4423561;32;34267;-87
2024/01/03 03:58:52;;;;;;;;;;;;;;;7.47;75.91;97787.41;4393134;32;33595;-86
2024/01/03 04:01:19;;;;;;;;;;;;;;;7.61;75.92;97792.56;4422706;32;34160;-87
2024/01/03 04:03:47;;;;;;;;;;;;;;;7.55;75.85;97797.72;4421922;32;33460;-86
2024/01/03 04:06:15;;;;;;;;;;;;;;;7.74;75.32;97799.50;4430476;32;32371;-88
2024/01/03 04:08:43;;;;;;;;;;;;;;;7.84;75.36;97809.81;4436475;32;33906;-89
2024/01/03 04:11:11;;;;;;;;;;;;;;;7.88;75.11;97808.97;4435623;32;33598;-88
2024/01/03 04:13:38;;;;;;;;;;;;;;;7.85;75.19;97812.41;4436361;32;32975;-87
2024/01/03 04:16:06;;;;;;;;;;;;;;;8.02;74.45;97810.72;4421003;32;33773;-86
2024/01/03 04:18:36;;;;;;;;;;;;;;;8.01;74.36;97815.88;4436722;32;35150;-88
2024/01/03 04:21:05;;;;;;;;;;;;;;;8.11;74.02;97815.03;4436229;32;34801;-88
2024/01/03 04:23:32;;;;;;;;;;;;;;;8.01;74.47;97821.91;4434575;32;32999;-89
2024/01/03 04:26:00;;;;;;;;;;;;;;;8.13;73.77;97813.31;4422304;32;33719;-88
2024/01/03 04:28:28;;;;;;;;;;;;;;;8.45;72.81;97815.94;4408742;32;34523;-88
2024/01/03 04:30:55;;;;;;;;;;;;;;;8.55;72.32;97813.34;4422121;32;34880;-89
2024/01/03 04:33:23;;;;;;;;;;;;;;;8.56;72.21;97810.75;4422881;32;32950;-88
2024/01/03 04:35:50;;;;;;;;;;;;;;;8.62;71.66;97813.31;4409027;32;34654;-87
2024/01/03 04:38:18;;;;;;;;;;;;;;;8.67;71.57;97809.00;4434388;32;35024;-88
2024/01/03 04:40:45;;;;;;;;;;;;;;;8.56;71.64;97802.12;4434594;32;34523;-88
2024/01/03 04:43:12;;;;;;;;;;;;;;;8.48;72.18;97799.56;4422484;32;33692;-88
2024/01/03 04:45:40;;;;;;;;;;;;;;;8.55;71.61;97785.78;4408272;32;33321;-88
2024/01/03 04:48:07;;;;;;;;;;;;;;;8.73;71.17;97790.06;4436132;32;35029;-88
2024/01/03 04:50:35;;;;;;;;;;;;;;;8.72;71.08;97793.50;4435451;32;34884;-86
2024/01/03 04:53:02;;;;;;;;;;;;;;;8.75;70.81;97781.44;4436093;32;32150;-88
2024/01/03 04:55:30;;;;;;;;;;;;;;;8.76;70.83;97777.13;4435618;32;34072;-88
2024/01/03 04:57:57;;;;;;;;;;;;;;;8.73;70.94;97780.59;4435769;32;34199;-88
2024/01/03 05:00:24;;;;;;;;;;;;;;;8.82;70.51;97774.53;4436246;32;33664;-86
2024/01/03 05:02:53;;;;;;;;;;;;;;;8.69;70.73;97783.19;4434167;32;32914;-88
2024/01/03 05:05:20;;;;;;;;;;;;;;;8.45;72.25;97789.25;4435562;32;33618;-86
2024/01/03 05:07:48;;;;;;;;;;;;;;;8.71;71.01;97773.69;4429878;32;34833;-88
2024/01/03 05:10:15;;;;;;;;;;;;;;;8.71;70.78;97781.44;4435480;32;34198;-87
2024/01/03 05:12:42;;;;;;;;;;;;;;;8.80;70.42;97789.19;4435813;32;34062;-88
2024/01/03 05:15:10;;;;;;;;;;;;;;;8.75;70.40;97796.06;4420331;32;32793;-88
2024/01/03 05:17:37;;;;;;;;;;;;;;;8.69;70.60;97794.38;4420980;32;33941;-88
2024/01/03 05:20:05;;;;;;;;;;;;;;;8.60;70.96;97791.81;4434233;32;34820;-88
2024/01/03 05:22:33;;;;;;;;;;;;;;;8.57;71.52;97788.38;4435157;32;34077;-88
2024/01/03 05:25:00;;;;;;;;;;;;;;;8.76;71.08;97774.56;4436071;32;34286;-88
2024/01/03 05:27:28;;;;;;;;;;;;;;;8.76;71.19;97784.88;4436041;32;35159;-88
2024/01/03 05:29:55;;;;;;;;;;;;;;;8.60;71.94;97771.16;4436194;32;33641;-88
2024/01/03 05:32:25;;;;;;;;;;;;;;;8.64;72.08;97782.34;4436389;32;33264;-88
2024/01/03 05:34:53;;;;;;;;;;;;;;;8.42;72.90;97784.94;4434499;32;33522;-88
2024/01/03 05:37:20;;;;;;;;;;;;;;;8.27;73.59;97788.34;4435985;32;35387;-87
2024/01/03 05:39:47;;;;;;;;;;;;;;;8.46;73.05;97788.38;4433686;32;34150;-88
2024/01/03 05:42:17;;;;;;;;;;;;;;;8.65;72.47;97782.31;4435183;32;33813;-87
2024/01/03 05:44:44;;;;;;;;;;;;;;;8.75;71.94;97789.19;4435507;32;34028;-88
2024/01/03 05:47:12;;;;;;;;;;;;;;;8.59;72.63;97794.38;4435056;32;35041;-88
2024/01/03 05:49:40;;;;;;;;;;;;;;;8.68;72.67;97787.50;4435432;32;34104;-87
2024/01/03 05:52:07;;;;;;;;;;;;;;;8.62;72.94;97787.50;4434197;32;33864;-87
2024/01/03 05:54:34;;;;;;;;;;;;;;;8.69;72.77;97796.94;4420410;32;34151;-88
2024/01/03 05:57:02;;;;;;;;;;;;;;;8.72;72.74;97796.94;4429084;32;34403;-87
2024/01/03 05:59:30;;;;;;;;;;;;;;;8.55;73.51;97809.03;4435878;32;33342;-88
2024/01/03 06:01:57;;;;;;;;;;;;;;;8.75;72.60;97807.28;4435254;32;34347;-88
2024/01/03 06:04:25;;;;;;;;;;;;;;;8.76;72.72;97801.25;4435231;32;32522;-88
2024/01/03 06:06:52;;;;;;;;;;;;;;;8.66;72.96;97809.88;4421819;32;35080;-88
2024/01/03 06:09:20;;;;;;;;;;;;;;;8.65;73.16;97812.47;4435588;32;34086;-89
2024/01/03 06:11:47;;;;;;;;;;;;;;;8.64;72.98;97819.38;4434547;32;33182;-88
2024/01/03 06:14:14;;;;;;;;;;;;;;;8.64;73.17;97816.78;4434846;32;34690;-88
2024/01/03 06:16:42;;;;;;;;;;;;;;;8.71;72.92;97808.16;4435656;32;34335;-88
2024/01/03 06:19:09;;;;;;;;;;;;;;;8.76;72.84;97802.97;4434790;32;34375;-88
2024/01/03 06:21:37;;;;;;;;;;;;;;;8.92;72.33;97809.81;4434637;32;34178;-88
2024/01/03 06:24:04;;;;;;;;;;;;;;;8.73;72.77;97811.59;4434834;32;33195;-89
2024/01/03 06:26:32;;;;;;;;;;;;;;;8.80;72.65;97814.16;4435572;32;34029;-88
2024/01/03 06:28:59;;;;;;;;;;;;;;;8.83;72.13;97814.16;4434983;32;35275;-88
2024/01/03 06:31:27;;;;;;;;;;;;;;;8.69;72.28;97815.03;4420994;32;33245;-88
2024/01/03 06:33:54;;;;;;;;;;;;;;;8.62;72.14;97827.97;4434733;32;34254;-88
2024/01/03 06:36:22;;;;;;;;;;;;;;;8.46;72.54;97838.31;4434994;32;35345;-88
2024/01/03 06:38:50;;;;;;;;;;;;;;;8.65;72.00;97834.00;4421490;32;34594;-88
2024/01/03 06:41:18;;;;;;;;;;;;;;;8.81;71.45;97833.97;4436707;32;33102;-88
2024/01/03 06:43:46;;;;;;;;;;;;;;;8.78;71.16;97840.00;4437037;32;33987;-88
2024/01/03 06:46:14;;;;;;;;;;;;;;;8.62;71.43;97834.00;4436433;32;34359;-88
2024/01/03 06:48:41;;;;;;;;;;;;;;;8.48;71.97;97838.28;4436238;32;34226;-88
2024/01/03 06:51:09;;;;;;;;;;;;;;;8.47;72.61;97828.84;4436981;32;33074;-88
2024/01/03 06:53:37;;;;;;;;;;;;;;;8.55;72.27;97826.25;4436435;32;33629;-88
2024/01/03 06:56:05;;;;;;;;;;;;;;;8.50;71.84;97827.13;4436630;32;33922;-88
2024/01/03 06:58:32;;;;;;;;;;;;;;;8.42;71.97;97822.81;4436980;32;33812;-88
2024/01/03 07:00:59;;;;;;;;;;;;;;;8.60;71.94;97830.56;4437540;32;32572;-89
2024/01/03 07:03:27;;;;;;;;;;;;;;;8.27;73.33;97832.25;4436404;32;34286;-88
2024/01/03 07:05:54;;;;;;;;;;;;;;;8.32;73.31;97836.56;4435700;32;34303;-88
2024/01/03 07:08:23;;;;;;;;;;;;;;;8.25;73.65;97844.28;4435496;32;34346;-87
2024/01/03 07:10:51;;;;;;;;;;;;;;;8.36;73.75;97843.44;4437270;32;33066;-88
2024/01/03 07:13:19;;;;;;;;;;;;;;;8.40;73.74;97842.59;4437023;32;34191;-88
2024/01/03 07:15:46;;;;;;;;;;;;;;;8.61;73.11;97846.91;4437302;32;35180;-88
2024/01/03 07:18:13;;;;;;;;;;;;;;;8.20;74.76;97842.56;4436841;32;33870;-88
2024/01/03 07:20:41;;;;;;;;;;;;;;;8.01;75.87;97836.53;4434141;32;32878;-88
2024/01/03 07:23:08;;;;;;;;;;;;;;;8.48;74.42;97838.28;4412097;32;33442;-86
2024/01/03 07:25:36;;;;;;;;;;;;;;;8.39;74.72;97835.72;4422524;32;34148;-92
2024/01/03 07:28:03;;;;;;;;;;;;;;;8.13;76.70;97831.38;4435017;32;34258;-88
2024/01/03 07:30:30;;;;;;;;;;;;;;;8.51;75.43;97830.56;4432763;32;33178;-89
2024/01/03 07:32:58;;;;;;;;;;;;;;;8.39;75.73;97835.72;4417123;32;33874;-88
2024/01/03 07:35:25;;;;;;;;;;;;;;;8.28;75.92;97843.44;4421301;32;33155;-86
2024/01/03 07:37:53;;;;;;;;;;;;;;;8.48;75.63;97839.16;4423170;32;33646;-87
2024/01/03 07:40:20;;;;;;;;;;;;;;;8.70;74.46;97836.56;4436915;32;32147;-87
2024/01/03 07:42:48;;;;;;;;;;;;;;;8.92;73.36;97843.41;4436507;32;34431;-89
2024/01/03 07:45:15;;;;;;;;;;;;;;;8.74;74.78;97835.69;4436069;32;33901;-90
2024/01/03 07:47:43;;;;;;;;;;;;;;;8.86;74.06;97851.19;4422596;32;35171;-88
2024/01/03 07:50:11;;;;;;;;;;;;;;;8.77;74.77;97844.31;4426390;32;33281;-87
2024/01/03 07:52:39;;;;;;;;;;;;;;;8.92;74.10;97845.16;4436220;32;33885;-87
2024/01/03 07:55:06;;;;;;;;;;;;;;;9.01;73.84;97837.37;4436487;32;33718;-86
2024/01/03 07:57:33;;;;;;;;;;;;;;;9.07;74.17;97832.19;4435606;32;34248;-86
2024/01/03 08:00:01;;;;;;;;;;;;;;;8.91;74.99;97843.44;4434081;32;34005;-86
2024/01/03 08:02:31;;;;;;;;;;;;;;;9.16;73.93;97831.28;4436948;32;33845;-85
2024/01/03 08:04:58;;;;;;;;;;;;;;;9.10;74.13;97839.09;4436796;32;34146;-85
2024/01/03 08:07:26;;;;;;;;;;;;;;;9.22;74.20;97837.31;4436620;32;34135;-87
2024/01/03 08:09:53;;;;;;;;;;;;;;;9.22;74.76;97836.47;4436917;32;33116;-87
2024/01/03 08:12:20;;;;;;;;;;;;;;;9.31;74.74;97846.75;4433742;32;33369;-87
2024/01/03 08:14:47;;;;;;;;;;;;;;;9.27;75.03;97850.22;4435067;32;35097;-86
2024/01/03 08:17:16;;;;;;;;;;;;;;;9.39;74.35;97860.53;4436832;32;34237;-88
2024/01/03 08:19:43;;;;;;;;;;;;;;;9.38;74.98;97855.38;4436702;32;33063;-87
2024/01/03 08:22:11;;;;;;;;;;;;;;;9.11;75.39;97858.91;4436822;32;35032;-87
2024/01/03 08:24:38;;;;;;;;;;;;;;;9.26;74.65;97870.06;4437207;32;33964;-87
2024/01/03 08:27:05;;;;;;;;;;;;;;;9.25;74.94;97867.50;4437171;32;33841;-86
2024/01/03 08:29:34;;;;;;;;;;;;;;;9.50;74.00;97863.06;4436505;32;33002;-87
2024/01/03 08:32:01;;;;;;;;;;;;;;;9.82;73.07;97868.13;4422199;32;33863;-87
2024/01/03 08:34:30;;;;;;;;;;;;;;;9.73;73.13;97874.19;4435221;32;34150;-87
2024/01/03 08:36:57;;;;;;;;;;;;;;;9.71;73.20;97867.31;4431265;32;34474;-86
2024/01/03 08:39:24;;;;;;;;;;;;;;;9.86;72.78;97871.56;4436646;32;34014;-88
2024/01/03 08:41:53;;;;;;;;;;;;;;;10.00;72.52;97872.34;4436034;32;34181;-88
2024/01/03 08:44:21;;;;;;;;;;;;;;;9.95;72.26;97879.25;4434697;32;34388;-87
2024/01/03 08:46:48;;;;;;;;;;;;;;;9.99;72.28;97880.97;4431722;32;34764;-88
2024/01/03 08:49:16;;;;;;;;;;;;;;;9.77;72.64;97892.28;4437299;32;33596;-89
2024/01/03 08:51:45;;;;;;;;;;;;;;;9.90;72.15;97879.28;4437273;32;34780;-90
2024/01/03 08:54:13;;;;;;;;;;;;;;;9.98;71.63;97881.84;4433496;32;34266;-89
2024/01/03 08:56:40;;;;;;;;;;;;;;;9.72;72.67;97881.97;4435375;32;33978;-90
2024/01/03 08:59:07;;;;;;;;;;;;;;;9.91;72.11;97891.34;4432684;32;33230;-91
2024/01/03 09:01:35;;;;;;;;;;;;;;;9.74;72.75;97896.63;4424886;32;34495;-91
2024/01/03 09:04:03;;;;;;;;;;;;;;;9.91;72.07;97870.66;4426764;32;35233;-88
2024/01/03 09:06:32;;;;;;;;;;;;;;;9.83;72.26;97869.84;4435729;32;34237;-91
2024/01/03 09:09:00;;;;;;;;;;;;;;;9.56;73.14;97883.75;4434871;32;34191;-90
2024/01/03 09:11:28;;;;;;;;;;;;;;;9.94;72.31;97887.91;4420656;32;33161;-89
2024/01/03 09:13:57;;;;;;;;;;;;;;;10.11;71.63;97875.69;4434286;32;34799;-90
2024/01/03 09:16:28;;;;;;;;;;;;;;;9.99;72.06;97886.12;4435671;32;34194;-90
2024/01/03 09:18:56;;;;;;;;;;;;;;;10.14;71.77;97885.19;4432488;32;34035;-89
2024/01/03 09:21:23;;;;;;;;;;;;;;;9.91;72.37;97877.56;4432875;32;33456;-87
2024/01/03 09:23:51;;;;;;;;;;;;;;;10.31;71.01;97878.22;4427701;32;34827;-91
2024/01/03 09:26:22;;;;;;;;;;;;;;;10.24;70.83;97879.94;4429424;32;34034;-91
2024/01/03 09:28:51;;;;;;;;;;;;;;;9.97;71.49;97885.31;4435738;32;33379;-91
2024/01/03 09:31:19;;;;;;;;;;;;;;;10.19;70.56;97881.72;4434033;32;34340;-88
2024/01/03 09:33:47;;;;;;;;;;;;;;;10.07;71.22;97880.91;4420334;32;34797;-89
2024/01/03 09:36:20;;;;;;;;;;;;;;;10.20;70.94;97877.41;4434885;32;34348;-87
2024/01/03 09:38:54;;;;;;;;;;;;;;;10.41;70.59;97881.59;4434256;32;33603;-91
2024/01/03 09:41:22;;;;;;;;;;;;;;;10.73;69.44;97883.94;4433652;32;34772;-89
2024/01/03 09:43:52;;;;;;;;;;;;;;;10.62;70.56;97885.75;4430834;32;33896;-88
2024/01/03 09:46:20;;;;;;;;;;;;;;;10.56;70.86;97886.66;4421674;32;33997;-88
2024/01/03 09:48:48;;;;;;;;;;;;;;;10.78;70.34;97891.66;4434289;32;33004;-87
2024/01/03 09:51:19;;;;;;;;;;;;;;;10.75;70.91;97894.28;4431498;32;33884;-88
2024/01/03 09:53:51;;;;;;;;;;;;;;;10.78;70.35;97892.53;4431478;32;34317;-88
2024/01/03 09:56:18;;;;;;;;;;;;;;;10.75;70.09;97886.50;4422059;32;34269;-89
2024/01/03 09:58:46;;;;;;;;;;;;;;;10.95;69.77;97895.84;4434409;32;32925;-89
2024/01/03 10:01:14;;;;;;;;;;;;;;;10.76;69.70;97893.41;4423079;32;33668;-88
2024/01/03 10:03:41;;;;;;;;;;;;;;;10.80;70.15;97892.53;4435615;32;34019;-87
2024/01/03 10:06:13;;;;;;;;;;;;;;;11.08;69.10;97895.72;4435442;32;34698;-90
2024/01/03 10:08:57;;;;;;;;;;;;;;;11.27;68.37;97906.78;4407519;32;33102;-90
2024/01/03 10:11:24;;;;;;;;;;;;;;;10.37;71.15;97906.66;4434277;32;34819;-87
2024/01/03 10:13:52;;;;;;;;;;;;;;;10.92;69.70;97897.59;4436294;32;35130;-87
2024/01/03 10:16:26;;;;;;;;;;;;;;;11.17;68.54;97901.69;4437486;32;34807;-90
2024/01/03 10:19:12;;;;;;;;;;;;;;;11.28;67.92;97898.13;4423819;32;33236;-86
2024/01/03 10:21:47;;;;;;;;;;;;;;;11.36;67.78;97901.47;4438148;32;34135;-87
2024/01/03 10:24:15;;;;;;;;;;;;;;;11.04;69.12;97905.28;4436386;32;34059;-87
2024/01/03 10:26:43;;;;;;;;;;;;;;;11.26;68.37;97905.06;4420860;32;33869;-87
2024/01/03 10:29:11;;;;;;;;;;;;;;;11.15;68.38;97897.37;4428481;32;33125;-86
2024/01/03 10:31:39;;;;;;;;;;;;;;;11.61;67.07;97899.47;4437082;32;33706;-87
2024/01/03 10:34:08;;;;;;;;;;;;;;;11.64;66.43;97889.91;4423670;32;34332;-87
2024/01/03 10:36:36;;;;;;;;;;;;;;;11.72;65.73;97891.56;4425186;32;33698;-85
2024/01/03 10:39:04;;;;;;;;;;;;;;;11.93;65.21;97888.72;4423539;32;33371;-86
2024/01/03 10:41:34;;;;;;;;;;;;;;;11.82;65.39;97890.56;4423782;32;34060;-86
2024/01/03 10:44:01;;;;;;;;;;;;;;;11.66;66.01;97882.97;4436859;32;34205;-88
2024/01/03 10:46:29;;;;;;;;;;;;;;;11.93;64.94;97883.53;4422481;32;34840;-87
2024/01/03 10:48:56;;;;;;;;;;;;;;;11.99;64.65;97875.66;4434868;32;34676;-87
2024/01/03 10:51:24;;;;;;;;;;;;;;;11.92;65.00;97868.81;4437090;32;33900;-87
2024/01/03 10:53:53;;;;;;;;;;;;;;;11.96;65.00;97869.66;4423149;32;34424;-87
2024/01/03 10:56:20;;;;;;;;;;;;;;;12.25;63.97;97874.44;4422895;32;33850;-87
2024/01/03 10:58:49;;;;;;;;;;;;;;;11.91;66.00;97865.38;4434284;32;33386;-86
2024/01/03 11:01:18;;;;;;;;;;;;;;;11.87;65.30;97862.84;4436438;32;34097;-86
2024/01/03 11:03:50;;;;;;;;;;;;;;;12.15;64.00;97864.16;4423149;32;34833;-87
2024/01/03 11:06:25;;;;;;;;;;;;;;;12.40;62.95;97863.81;4422832;32;34183;-87
2024/01/03 11:08:53;;;;;;;;;;;;;;;12.45;63.17;97862.00;4422963;32;33268;-87
2024/01/03 11:11:34;;;;;;;;;;;;;;;12.27;63.56;97857.06;4432763;32;34794;-87
2024/01/03 11:14:17;;;;;;;;;;;;;;;12.43;62.77;97852.53;4437122;32;35459;-87
2024/01/03 11:16:44;;;;;;;;;;;;;;;12.37;62.67;97854.31;4437151;32;34229;-88
2024/01/03 11:19:12;;;;;;;;;;;;;;;12.29;62.80;97852.72;4435296;32;33167;-87
2024/01/03 11:21:43;;;;;;;;;;;;;;;12.68;61.74;97859.00;4436263;32;34883;-86
2024/01/03 11:24:19;;;;;;;;;;;;;;;12.47;62.35;97849.00;4425686;32;34419;-87
2024/01/03 11:26:55;;;;;;;;;;;;;;;12.73;61.43;97851.13;4437319;32;34368;-88
2024/01/03 11:29:35;;;;;;;;;;;;;;;12.79;61.34;97844.09;4427363;32;32142;-88
2024/01/03 11:32:07;;;;;;;;;;;;;;;12.97;60.74;97834.25;4436908;32;34155;-87
2024/01/03 11:34:35;;;;;;;;;;;;;;;13.11;60.72;97829.66;4435948;32;33706;-87
2024/01/03 11:37:12;;;;;;;;;;;;;;;12.88;60.91;97845.69;4437133;32;33845;-87
2024/01/03 11:39:42;;;;;;;;;;;;;;;12.99;60.90;97846.34;4437188;32;33593;-87
2024/01/03 11:42:09;;;;;;;;;;;;;;;13.09;60.74;97855.69;4423109;32;35007;-89
2024/01/03 11:44:36;;;;;;;;;;;;;;;12.89;61.37;97855.22;4422981;32;34495;-86
2024/01/03 11:47:04;;;;;;;;;;;;;;;12.77;61.48;97851.06;4437156;32;34989;-86
2024/01/03 11:49:31;;;;;;;;;;;;;;;12.73;61.78;97848.53;4432307;32;34132;-87
2024/01/03 11:51:59;;;;;;;;;;;;;;;12.54;61.96;97843.66;4421541;32;33880;-86
2024/01/03 11:54:27;;;;;;;;;;;;;;;12.61;61.72;97841.78;4421804;32;33931;-87
2024/01/03 11:56:56;;;;;;;;;;;;;;;12.81;61.11;97831.09;4406693;32;34862;-87
2024/01/03 11:59:24;;;;;;;;;;;;;;;12.74;61.71;97832.06;4407148;32;33332;-90
2024/01/03 12:01:56;;;;;;;;;;;;;;;12.77;61.59;97830.28;4405144;32;35522;-90
2024/01/03 12:04:24;;;;;;;;;;;;;;;13.01;60.97;97828.13;4403019;32;33121;-85
2024/01/03 12:06:57;;;;;;;;;;;;;;;12.79;61.13;97830.22;4420361;32;34089;-85
2024/01/03 12:09:28;;;;;;;;;;;;;;;12.83;61.07;97837.94;4418421;32;33046;-86
2024/01/03 12:11:56;;;;;;;;;;;;;;;12.71;61.41;97830.38;4406095;32;33594;-87
2024/01/03 12:14:23;;;;;;;;;;;;;;;12.76;61.60;97830.28;4417899;32;33701;-87
2024/01/03 12:16:54;;;;;;;;;;;;;;;12.78;61.57;97834.59;4413253;32;34079;-88
2024/01/03 12:19:25;;;;;;;;;;;;;;;12.86;61.76;97832.69;4419870;32;33708;-87
2024/01/03 12:21:53;;;;;;;;;;;;;;;12.95;61.76;97833.41;4431428;32;34048;-85
2024/01/03 12:24:21;;;;;;;;;;;;;;;13.04;61.04;97828.06;4432658;32;33968;-86
2024/01/03 12:26:48;;;;;;;;;;;;;;;13.11;61.35;97822.72;4420705;32;34738;-87
2024/01/03 12:29:16;;;;;;;;;;;;;;;13.12;61.29;97819.22;4407284;32;34036;-87
2024/01/03 12:31:43;;;;;;;;;;;;;;;13.06;64.33;97837.53;4419060;32;35105;-87
2024/01/03 12:34:11;;;;;;;;;;;;;;;13.05;62.97;97828.03;4416956;32;32865;-89
2024/01/03 12:36:39;;;;;;;;;;;;;;;13.07;62.53;97823.66;4407339;32;33625;-88
2024/01/03 12:39:06;;;;;;;;;;;;;;;13.27;61.96;97822.44;4406278;32;32998;-89
2024/01/03 12:41:34;;;;;;;;;;;;;;;13.42;61.55;97816.94;4405953;32;35335;-89
2024/01/03 12:44:01;;;;;;;;;;;;;;;13.23;61.99;97815.56;4406037;32;34376;-88
2024/01/03 12:46:28;;;;;;;;;;;;;;;13.13;63.83;97810.50;4426021;32;34514;-90
2024/01/03 12:48:56;;;;;;;;;;;;;;;13.33;63.23;97820.59;4436214;32;33244;-87
2024/01/03 12:51:24;;;;;;;;;;;;;;;13.23;62.47;97815.56;4435967;32;35051;-88
2024/01/03 12:53:59;;;;;;;;;;;;;;;12.91;63.74;97822.22;4448618;32;34115;-87
2024/01/03 12:56:27;;;;;;;;;;;;;;;13.22;62.84;97816.44;4422722;32;35251;-89
2024/01/03 12:58:54;;;;;;;;;;;;;;;13.08;62.96;97808.91;4429358;32;33578;-88
2024/01/03 13:01:21;;;;;;;;;;;;;;;13.19;62.80;97816.50;4436218;32;34115;-90